H. Lee White — WZD2465 — position and weather

sailwx.info

Track history (hours):
 
Tides and Currents Weather Stations Pressure Air Temp Water Temp Dewpoint Dewpoint Depression Visibility Wind Speed Wind Dir Waves Ship Positions

H. Lee White

Owner: AMERICAN STEAMSHIP COMPANY, WILLIAMSVILLE, NY. More information available from US FCC via Universal Licensing System and Coast Guard Vessel Documentation Center.

Last reported at 2016-May-30 18:00 UTC. Time now 2016-May-31 02:05 UTC.
Position N 44°42' W 082°18'.

Length 214 m; draft 7.3 m.

Type: Cargo ship. MMSI: 366938770.

Wind from 190 at 11 knots

Barometer 1015.9 mb
Air temperature 15.5 ° C
Visibility: greater than 10.8 NM
Water temperature 5.5 ° C

Date/timePositionNaut miles runAvg speedWind from/ knotsBaromVisibWave heightAir tempDewpointWater temp
2016-May-30 18:00N 44°42' W 082°18'13 0.4 190 / 111015.910.8 15.5 5.5
2016-May-29 11:00N 44°42' W 082°36'64 2.5 180 / 17 0.512.7
2016-May-28 09:00N 43°42' W 082°06'14011.2 150 / 17
2016-May-27 20:33N 45°37' W 083°58'813.5
2016-May-27 20:00N 45°42' W 084°06'613.6 120 / 81014.0 1.016.6 6.6
2016-May-27 19:33N 45°41' W 084°14'1111.2
2016-May-27 18:33N 45°43' W 084°30'711.5
2016-May-27 18:00N 45°48' W 084°36'614.2 090 / 61013.8 5.4 17.2 6.6
2016-May-27 17:33N 45°49' W 084°45'1211.8
2016-May-27 16:33N 45°51' W 085°01'1212.1
2016-May-27 15:33N 45°52' W 085°19'1212.1
2016-May-27 14:33N 45°54' W 085°36'1211.6
2016-May-27 13:33N 45°56' W 085°53'2 2.3
2016-May-27 12:33N 45°58' W 085°52'0 0.0
2016-May-27 11:33N 45°58' W 085°52'0 0.1
2016-May-27 10:33N 45°58' W 085°52'0 0.0
2016-May-27 09:33N 45°58' W 085°52'0 0.0
2016-May-27 08:33N 45°58' W 085°52'0 0.0
2016-May-27 07:33N 45°58' W 085°52'0 0.0
2016-May-27 06:33N 45°58' W 085°52'0 0.0
2016-May-27 05:33N 45°58' W 085°52'0 0.1
2016-May-27 04:33N 45°58' W 085°52'0 0.0
2016-May-27 03:33N 45°58' W 085°52'0 0.0
2016-May-27 02:33N 45°58' W 085°52'0 0.0
2016-May-27 01:33N 45°58' W 085°52'0 0.3
2016-May-27 00:33N 45°58' W 085°53'4 4.2
2016-May-26 23:33N 45°54' W 085°53'1312.6
2016-May-26 22:33N 45°42' W 086°01'1312.7
2016-May-26 21:32N 45°31' W 086°10'1426.1
2016-May-26 21:00N 45°18' W 086°18'1 1.5 220 / 201010.0 1.016.6 4.9
2016-May-26 20:29N 45°19' W 086°18'3514.1
2016-May-26 18:00N 44°48' W 086°42'8410.5 180 / 161011.1 1.1 18.3 3.3
2016-May-26 10:00N 43°24' W 086°36'30 2.1 180 / 161013.0 1.012.7 6.6
2016-May-25 20:00N 43°54' W 086°36'33681684.0 020 / 131017.0 0.514.4 6.1
2016-May-25 18:00N 44°12' W 008°30'33341295.1 010 / 91017.2 2.2 14.9 3.8
2016-May-25 15:25N 44°47' W 086°23'1112.6
2016-May-25 14:33N 44°57' W 086°19'1312.5
2016-May-25 13:33N 45°09' W 086°14'1312.5
2016-May-25 12:33N 45°21' W 086°10'1312.6
2016-May-25 11:33N 45°34' W 086°05'1212.5
2016-May-25 10:33N 45°45' W 085°58'4 7.4
2016-May-25 10:00N 45°48' W 085°54'819.1 350 / 131019.0 0.510.5 2.7
2016-May-25 09:33N 45°56' W 085°53'2 1.9
2016-May-25 08:32N 45°58' W 085°52'0 0.0
2016-May-25 06:26N 45°58' W 085°52'0 0.0
2016-May-25 05:26N 45°58' W 085°52'0 0.0
2016-May-25 04:26N 45°58' W 085°52'0 0.0
2016-May-25 03:32N 45°58' W 085°52'0 0.0
2016-May-25 01:20N 45°58' W 085°52'0 0.0
2016-May-25 00:32N 45°58' W 085°52'0 0.0
2016-May-24 23:32N 45°58' W 085°52'0 0.0
2016-May-24 22:20N 45°58' W 085°52'0 0.0
2016-May-24 21:32N 45°58' W 085°52'0 0.0
2016-May-24 20:32N 45°58' W 085°52'0 0.0
2016-May-24 19:32N 45°58' W 085°52'1 1.1
2016-May-24 18:28N 45°57' W 085°52'0 0.0
2016-May-24 17:28N 45°57' W 085°52'0 0.0
2016-May-24 16:28N 45°57' W 085°52'0 0.0
2016-May-24 15:33N 45°57' W 085°52'0 0.0
2016-May-24 14:33N 45°57' W 085°52'0 0.1
2016-May-24 13:33N 45°57' W 085°52'8 7.8
2016-May-24 12:33N 45°54' W 085°42'7 6.6
2016-May-24 11:33N 45°50' W 085°49'1110.8
2016-May-24 10:34N 45°45' W 086°03'1312.7
2016-May-24 09:33N 45°34' W 086°13'1312.7
2016-May-24 08:33N 45°24' W 086°24'4783.0
2016-May-24 08:00N 45°18' W 087°30'4091.5 210 / 18270.1 0.512.2 2.2
2016-May-24 07:33N 45°14' W 086°34'1212.5
2016-May-24 06:33N 45°03' W 086°44'4 7.7
2016-May-24 06:00N 45°00' W 086°48'819.5 200 / 181012.810.8 11.1 2.7
2016-May-24 05:33N 44°52' W 086°50'1312.5
2016-May-24 04:33N 44°40' W 086°55'1312.6
2016-May-24 03:33N 44°28' W 087°00'8813.4
2016-May-23 21:00N 43°00' W 087°06'6 0.2 170 / 12405.5 0.527.7 6.6
2016-May-22 20:00N 42°54' W 087°06'6 6.0 340 / 6507.1 0.512.7 12.7
2016-May-22 19:00N 43°00' W 087°06'13512.2 1020.610.8 14.9 5.5
2016-May-22 08:00N 45°12' W 086°30'15175.4 210 / 1507.1 0.5 9.9 1.6
2016-May-22 06:00N 46°12' W 083°12'128256.2 010 / 141018.610.8 10.5 1.1
2016-May-22 05:29N 45°38' W 086°09'1112.1
2016-May-22 04:33N 45°45' W 085°57'1212.3
2016-May-22 03:33N 45°51' W 085°42'1111.4
2016-May-22 02:33N 45°53' W 085°26'1211.8
2016-May-22 01:33N 45°52' W 085°09'1211.9
2016-May-22 00:33N 45°50' W 084°52'1211.5
2016-May-21 23:33N 45°46' W 084°36'1111.2
2016-May-21 22:34N 45°41' W 084°22'1110.9
2016-May-21 21:34N 45°38' W 084°07'1221.6
2016-May-21 21:00N 45°30' W 083°54'118 4.7 280 / 10507.1 0.524.9 4.4
2016-May-20 20:00N 44°30' W 081°30'   140 / 8676.4 0.522.7 3.8
Track history (hours):
 
Tides and Currents Weather Stations Pressure Air Temp Water Temp Dewpoint Dewpoint Depression Visibility Wind Speed Wind Dir Waves Ship Positions

H. Lee White

Owner: AMERICAN STEAMSHIP COMPANY, WILLIAMSVILLE, NY. More information available from US FCC via Universal Licensing System and Coast Guard Vessel Documentation Center.

Last reported at 2016-May-30 18:00 UTC. Time now 2016-May-31 02:05 UTC.
Position N 44°42' W 082°18'.

Length 214 m; draft 7.3 m.

Type: Cargo ship. MMSI: 366938770.

Wind from 190 at 11 knots

Barometer 1015.9 mb
Air temperature 15.5 ° C
Visibility: greater than 10.8 NM
Water temperature 5.5 ° C

Date/timePositionNaut miles runAvg speedWind from/ knotsBaromVisibWave heightAir tempDewpointWater temp
2016-May-30 18:00N 44°42' W 082°18'13 0.4 190 / 111015.910.8 15.5 5.5
2016-May-29 11:00N 44°42' W 082°36'64 2.5 180 / 17 0.512.7
2016-May-28 09:00N 43°42' W 082°06'14011.2 150 / 17
2016-May-27 20:33N 45°37' W 083°58'813.5
2016-May-27 20:00N 45°42' W 084°06'613.6 120 / 81014.0 1.016.6 6.6
2016-May-27 19:33N 45°41' W 084°14'1111.2
2016-May-27 18:33N 45°43' W 084°30'711.5
2016-May-27 18:00N 45°48' W 084°36'614.2 090 / 61013.8 5.4 17.2 6.6
2016-May-27 17:33N 45°49' W 084°45'1211.8
2016-May-27 16:33N 45°51' W 085°01'1212.1
2016-May-27 15:33N 45°52' W 085°19'1212.1
2016-May-27 14:33N 45°54' W 085°36'1211.6
2016-May-27 13:33N 45°56' W 085°53'2 2.3
2016-May-27 12:33N 45°58' W 085°52'0 0.0
2016-May-27 11:33N 45°58' W 085°52'0 0.1
2016-May-27 10:33N 45°58' W 085°52'0 0.0
2016-May-27 09:33N 45°58' W 085°52'0 0.0
2016-May-27 08:33N 45°58' W 085°52'0 0.0
2016-May-27 07:33N 45°58' W 085°52'0 0.0
2016-May-27 06:33N 45°58' W 085°52'0 0.0
2016-May-27 05:33N 45°58' W 085°52'0 0.1
2016-May-27 04:33N 45°58' W 085°52'0 0.0
2016-May-27 03:33N 45°58' W 085°52'0 0.0
2016-May-27 02:33N 45°58' W 085°52'0 0.0
2016-May-27 01:33N 45°58' W 085°52'0 0.3
2016-May-27 00:33N 45°58' W 085°53'4 4.2
2016-May-26 23:33N 45°54' W 085°53'1312.6
2016-May-26 22:33N 45°42' W 086°01'1312.7
2016-May-26 21:32N 45°31' W 086°10'1426.1
2016-May-26 21:00N 45°18' W 086°18'1 1.5 220 / 201010.0 1.016.6 4.9
2016-May-26 20:29N 45°19' W 086°18'3514.1
2016-May-26 18:00N 44°48' W 086°42'8410.5 180 / 161011.1 1.1 18.3 3.3
2016-May-26 10:00N 43°24' W 086°36'30 2.1 180 / 161013.0 1.012.7 6.6
2016-May-25 20:00N 43°54' W 086°36'33681684.0 020 / 131017.0 0.514.4 6.1
2016-May-25 18:00N 44°12' W 008°30'33341295.1 010 / 91017.2 2.2 14.9 3.8
2016-May-25 15:25N 44°47' W 086°23'1112.6
2016-May-25 14:33N 44°57' W 086°19'1312.5
2016-May-25 13:33N 45°09' W 086°14'1312.5
2016-May-25 12:33N 45°21' W 086°10'1312.6
2016-May-25 11:33N 45°34' W 086°05'1212.5
2016-May-25 10:33N 45°45' W 085°58'4 7.4
2016-May-25 10:00N 45°48' W 085°54'819.1 350 / 131019.0 0.510.5 2.7
2016-May-25 09:33N 45°56' W 085°53'2 1.9
2016-May-25 08:32N 45°58' W 085°52'0 0.0
2016-May-25 06:26N 45°58' W 085°52'0 0.0
2016-May-25 05:26N 45°58' W 085°52'0 0.0
2016-May-25 04:26N 45°58' W 085°52'0 0.0
2016-May-25 03:32N 45°58' W 085°52'0 0.0
2016-May-25 01:20N 45°58' W 085°52'0 0.0
2016-May-25 00:32N 45°58' W 085°52'0 0.0
2016-May-24 23:32N 45°58' W 085°52'0 0.0
2016-May-24 22:20N 45°58' W 085°52'0 0.0
2016-May-24 21:32N 45°58' W 085°52'0 0.0
2016-May-24 20:32N 45°58' W 085°52'0 0.0
2016-May-24 19:32N 45°58' W 085°52'1 1.1
2016-May-24 18:28N 45°57' W 085°52'0 0.0
2016-May-24 17:28N 45°57' W 085°52'0 0.0
2016-May-24 16:28N 45°57' W 085°52'0 0.0
2016-May-24 15:33N 45°57' W 085°52'0 0.0
2016-May-24 14:33N 45°57' W 085°52'0 0.1
2016-May-24 13:33N 45°57' W 085°52'8 7.8
2016-May-24 12:33N 45°54' W 085°42'7 6.6
2016-May-24 11:33N 45°50' W 085°49'1110.8
2016-May-24 10:34N 45°45' W 086°03'1312.7
2016-May-24 09:33N 45°34' W 086°13'1312.7
2016-May-24 08:33N 45°24' W 086°24'4783.0
2016-May-24 08:00N 45°18' W 087°30'4091.5 210 / 18270.1 0.512.2 2.2
2016-May-24 07:33N 45°14' W 086°34'1212.5
2016-May-24 06:33N 45°03' W 086°44'4 7.7
2016-May-24 06:00N 45°00' W 086°48'819.5 200 / 181012.810.8 11.1 2.7
2016-May-24 05:33N 44°52' W 086°50'1312.5
2016-May-24 04:33N 44°40' W 086°55'1312.6
2016-May-24 03:33N 44°28' W 087°00'8813.4
2016-May-23 21:00N 43°00' W 087°06'6 0.2 170 / 12405.5 0.527.7 6.6
2016-May-22 20:00N 42°54' W 087°06'6 6.0 340 / 6507.1 0.512.7 12.7
2016-May-22 19:00N 43°00' W 087°06'13512.2 1020.610.8 14.9 5.5
2016-May-22 08:00N 45°12' W 086°30'15175.4 210 / 1507.1 0.5 9.9 1.6
2016-May-22 06:00N 46°12' W 083°12'128256.2 010 / 141018.610.8 10.5 1.1
2016-May-22 05:29N 45°38' W 086°09'1112.1
2016-May-22 04:33N 45°45' W 085°57'1212.3
2016-May-22 03:33N 45°51' W 085°42'1111.4
2016-May-22 02:33N 45°53' W 085°26'1211.8
2016-May-22 01:33N 45°52' W 085°09'1211.9
2016-May-22 00:33N 45°50' W 084°52'1211.5
2016-May-21 23:33N 45°46' W 084°36'1111.2
2016-May-21 22:34N 45°41' W 084°22'1110.9
2016-May-21 21:34N 45°38' W 084°07'1221.6
2016-May-21 21:00N 45°30' W 083°54'118 4.7 280 / 10507.1 0.524.9 4.4
2016-May-20 20:00N 44°30' W 081°30'   140 / 8676.4 0.522.7 3.8

Dump ship's entire track history